createdAt,value
2019-04-27T00:00:00.096Z,67.30
2019-04-27T00:00:59.986Z,66.50
2019-04-27T00:01:56.031Z,64.90
2019-04-27T00:03:02.295Z,63.70
2019-04-27T00:04:01.685Z,62.70
2019-04-27T00:05:11.004Z,61.50
2019-04-27T00:06:09.589Z,60.30
2019-04-27T00:06:50.198Z,60.90
2019-04-27T00:07:51.506Z,62.60
2019-04-27T00:08:39.167Z,64.10
2019-04-27T00:09:41.226Z,65.40
2019-04-27T00:10:28.557Z,66.50
2019-04-27T00:11:20.514Z,68.40
2019-04-27T00:12:05.628Z,69.20
2019-04-27T00:12:46.480Z,70.50
2019-04-27T00:13:27.106Z,69.10
2019-04-27T00:14:10.334Z,68.10
2019-04-27T00:14:55.040Z,67.40
2019-04-27T00:15:46.707Z,66.30
2019-04-27T00:16:50.890Z,65.00
2019-04-27T00:17:49.636Z,64.20
2019-04-27T00:18:49.698Z,63.10
2019-04-27T00:19:55.851Z,62.30
2019-04-27T00:20:53.580Z,61.40
2019-04-27T00:21:54.882Z,60.00
2019-04-27T00:22:48.546Z,60.20
2019-04-27T00:23:29.346Z,62.80
2019-04-27T00:24:13.589Z,64.10
2019-04-27T00:24:54.201Z,65.90
2019-04-27T00:25:35.996Z,66.00
2019-04-27T00:26:17.498Z,66.60
2019-04-27T00:27:00.913Z,67.20
2019-04-27T00:27:41.499Z,67.90
2019-04-27T00:28:23.004Z,68.50
2019-04-27T00:29:04.338Z,67.80
2019-04-27T00:29:46.249Z,66.50
2019-04-27T00:30:27.041Z,65.70
2019-04-27T00:31:07.868Z,64.10
2019-04-27T00:31:50.897Z,63.10
2019-04-27T00:32:33.238Z,62.10
2019-04-27T00:33:15.089Z,61.20
2019-04-27T00:33:57.524Z,61.00
2019-04-27T00:34:38.126Z,62.00
2019-04-27T00:35:23.462Z,63.40
2019-04-27T00:36:13.007Z,64.80
2019-04-27T00:37:08.724Z,65.80
2019-04-27T00:37:58.301Z,66.90
2019-04-27T00:39:05.255Z,67.70
2019-04-27T00:40:06.470Z,68.20
2019-04-27T00:40:53.763Z,69.40
2019-04-27T00:41:36.169Z,68.60
2019-04-27T00:42:16.687Z,67.40
2019-04-27T00:42:58.462Z,66.40
2019-04-27T00:43:42.762Z,65.30
2019-04-27T00:44:23.870Z,64.80
2019-04-27T00:45:05.488Z,64.10
2019-04-27T00:45:46.109Z,63.50
2019-04-27T00:46:26.820Z,63.00
2019-04-27T00:47:08.626Z,62.70
2019-04-27T00:47:59.072Z,62.50
2019-04-27T00:48:33.326Z,62.40
2019-04-27T00:49:15.194Z,62.50
2019-04-27T00:49:55.787Z,62.90
2019-04-27T00:50:36.430Z,62.60
2019-04-27T00:51:17.151Z,62.10
2019-04-27T00:51:57.697Z,61.50
2019-04-27T00:52:38.398Z,61.00
2019-04-27T00:53:18.942Z,60.70
2019-04-27T00:53:59.515Z,60.50
2019-04-27T00:54:40.078Z,60.30
2019-04-27T00:55:23.428Z,60.00
2019-04-27T00:56:28.848Z,60.00
2019-04-27T00:57:18.917Z,60.20
2019-04-27T00:58:23.114Z,60.20
2019-04-27T00:59:19.407Z,59.90
2019-04-27T01:00:15.649Z,59.60
2019-04-27T01:01:23.363Z,59.60
2019-04-27T01:02:25.477Z,59.40
2019-04-27T01:03:23.477Z,59.00
2019-04-27T01:04:15.597Z,59.00
2019-04-27T01:04:56.027Z,59.20
2019-04-27T01:05:36.630Z,59.00
2019-04-27T01:06:19.287Z,58.90
2019-04-27T01:06:59.955Z,58.90
2019-04-27T01:07:40.626Z,58.90
2019-04-27T01:08:22.843Z,58.90
2019-04-27T01:09:04.426Z,58.80
2019-04-27T01:09:45.207Z,58.90
2019-04-27T01:10:26.015Z,59.00
2019-04-27T01:11:14.024Z,59.10
2019-04-27T01:11:54.669Z,59.30
2019-04-27T01:12:35.273Z,59.20
2019-04-27T01:13:17.118Z,59.30
2019-04-27T01:13:57.787Z,59.30
2019-04-27T01:14:38.341Z,59.40
2019-04-27T01:15:23.682Z,59.50
2019-04-27T01:16:03.762Z,59.60
2019-04-27T01:16:44.325Z,59.90
2019-04-27T01:17:26.738Z,60.00
2019-04-27T01:18:14.953Z,60.30
2019-04-27T01:18:52.244Z,60.50
2019-04-27T01:19:36.227Z,60.70
2019-04-27T01:20:18.467Z,60.90
2019-04-27T01:20:59.563Z,60.70
2019-04-27T01:21:41.268Z,60.80
2019-04-27T01:22:21.907Z,61.00
2019-04-27T01:23:05.302Z,61.10
2019-04-27T01:23:48.729Z,61.20
2019-04-27T01:24:30.369Z,61.80
2019-04-27T01:25:11.419Z,61.50
2019-04-27T01:26:13.269Z,61.70
2019-04-27T01:27:16.933Z,62.00
2019-04-27T01:28:26.762Z,62.40
2019-04-27T01:29:12.194Z,62.90
2019-04-27T01:29:52.824Z,63.10
2019-04-27T01:30:53.613Z,63.30
2019-04-27T01:31:36.015Z,63.40
2019-04-27T01:32:18.643Z,63.80
2019-04-27T01:32:59.564Z,64.20
2019-04-27T01:33:41.910Z,64.20
2019-04-27T01:34:23.691Z,64.30
2019-04-27T01:35:04.216Z,64.50
2019-04-27T01:35:44.931Z,64.80
2019-04-27T01:36:25.462Z,65.10
2019-04-27T01:37:07.225Z,65.40
2019-04-27T01:37:48.979Z,65.50
2019-04-27T01:38:29.631Z,65.60
2019-04-27T01:39:13.182Z,65.40
2019-04-27T01:39:53.786Z,65.90
2019-04-27T01:40:36.106Z,65.90
2019-04-27T01:41:16.658Z,66.10
2019-04-27T01:41:58.937Z,66.40
2019-04-27T01:42:39.509Z,66.70
2019-04-27T01:43:22.103Z,66.60
2019-04-27T01:44:03.814Z,67.20
2019-04-27T01:44:44.456Z,67.10
2019-04-27T01:45:26.805Z,67.80
2019-04-27T01:46:09.134Z,67.60
2019-04-27T01:46:49.968Z,67.80
2019-04-27T01:47:32.341Z,67.80
2019-04-27T01:48:23.122Z,68.30
2019-04-27T01:48:59.090Z,68.30
2019-04-27T01:49:42.124Z,68.50
2019-04-27T01:50:24.551Z,68.20
2019-04-27T01:51:09.428Z,69.00
2019-04-27T01:51:50.334Z,69.10
2019-04-27T01:52:31.068Z,69.30
2019-04-27T01:53:12.763Z,69.30
2019-04-27T01:53:53.375Z,69.70
2019-04-27T01:54:35.734Z,69.80
2019-04-27T01:55:18.843Z,70.20
2019-04-27T01:55:59.618Z,70.30
2019-04-27T01:56:40.232Z,70.20
2019-04-27T01:57:20.935Z,70.80
2019-04-27T01:58:01.535Z,71.00
2019-04-27T01:58:45.967Z,71.30
2019-04-27T01:59:26.578Z,71.10
2019-04-27T02:00:08.783Z,71.30
2019-04-27T02:01:09.699Z,71.70
2019-04-27T02:02:16.764Z,71.70
2019-04-27T02:02:59.545Z,72.40
2019-04-27T02:03:55.813Z,72.40
2019-04-27T02:04:53.292Z,72.70
2019-04-27T02:05:43.354Z,73.00
2019-04-27T02:06:24.008Z,72.90
2019-04-27T02:07:09.077Z,73.10
2019-04-27T02:07:51.056Z,72.90
2019-04-27T02:08:31.663Z,73.50
2019-04-27T02:09:13.769Z,73.30
2019-04-27T02:09:54.420Z,73.50
2019-04-27T02:10:36.334Z,73.20
2019-04-27T02:11:18.514Z,73.20
2019-04-27T02:12:02.251Z,73.70
2019-04-27T02:12:44.007Z,74.00
2019-04-27T02:13:24.884Z,74.30
2019-04-27T02:14:05.698Z,76.50
2019-04-27T02:14:46.275Z,76.70
2019-04-27T02:15:29.350Z,76.70
2019-04-27T02:16:10.036Z,76.90
2019-04-27T02:16:52.397Z,76.90
2019-04-27T02:17:32.978Z,76.80
2019-04-27T02:18:14.735Z,76.70
2019-04-27T02:18:58.522Z,77.50
2019-04-27T02:19:40.130Z,78.10
2019-04-27T02:20:20.740Z,78.60
2019-04-27T02:21:01.277Z,78.60
2019-04-27T02:21:43.642Z,78.80
2019-04-27T02:22:24.195Z,79.00
2019-04-27T02:23:04.811Z,78.90
2019-04-27T02:23:45.455Z,78.90
2019-04-27T02:24:26.212Z,79.10
2019-04-27T02:25:06.845Z,79.20
2019-04-27T02:25:47.429Z,79.50
2019-04-27T02:26:29.929Z,79.40
2019-04-27T02:27:10.764Z,79.50
2019-04-27T02:27:59.269Z,79.70
2019-04-27T02:29:00.562Z,79.90
2019-04-27T02:29:48.743Z,79.80
2019-04-27T02:30:46.742Z,80.00
2019-04-27T02:32:02.736Z,80.20
2019-04-27T02:32:59.327Z,80.40
2019-04-27T02:33:46.182Z,80.70
2019-04-27T02:34:30.222Z,81.00
2019-04-27T02:35:16.608Z,80.90
2019-04-27T02:36:00.387Z,81.30
2019-04-27T02:36:42.810Z,81.20
2019-04-27T02:37:25.126Z,81.30
2019-04-27T02:38:05.748Z,81.20
2019-04-27T02:38:46.353Z,81.40
2019-04-27T02:39:29.754Z,81.50
2019-04-27T02:40:21.980Z,81.30
2019-04-27T02:41:03.738Z,81.70
2019-04-27T02:41:45.439Z,81.80
2019-04-27T02:42:29.778Z,81.70
2019-04-27T02:43:11.513Z,81.70
2019-04-27T02:44:01.360Z,81.50
2019-04-27T02:44:41.560Z,81.50
2019-04-27T02:45:22.299Z,81.80
2019-04-27T02:46:02.989Z,81.90
2019-04-27T02:46:49.936Z,82.10
2019-04-27T02:47:29.472Z,82.20
2019-04-27T02:48:11.339Z,82.20
2019-04-27T02:48:59.572Z,82.30
2019-04-27T02:49:35.603Z,82.50
2019-04-27T02:50:19.321Z,82.70
2019-04-27T02:51:03.215Z,82.70
2019-04-27T02:52:09.131Z,82.20
2019-04-27T02:52:50.670Z,82.70
2019-04-27T02:53:52.608Z,82.70
2019-04-27T02:54:33.139Z,82.70
2019-04-27T02:55:13.947Z,82.40
2019-04-27T02:55:54.579Z,82.90
2019-04-27T02:56:35.159Z,83.00
2019-04-27T02:57:15.783Z,83.30
2019-04-27T02:57:56.407Z,83.40
2019-04-27T02:58:40.486Z,83.00
2019-04-27T02:59:20.677Z,83.20
2019-04-27T03:00:02.967Z,83.50
2019-04-27T03:00:50.108Z,83.50
2019-04-27T03:01:35.050Z,83.50
2019-04-27T03:02:31.416Z,83.70
2019-04-27T03:03:13.956Z,83.60
2019-04-27T03:04:00.005Z,83.50
2019-04-27T03:04:40.142Z,83.90
2019-04-27T03:05:39.845Z,83.90
2019-04-27T03:06:20.403Z,84.40
2019-04-27T03:07:02.243Z,84.10
2019-04-27T03:07:44.607Z,84.10
2019-04-27T03:08:25.342Z,83.80
2019-04-27T03:09:05.909Z,84.00
2019-04-27T03:09:47.737Z,84.10
2019-04-27T03:10:29.971Z,84.10
2019-04-27T03:11:12.359Z,83.80
2019-04-27T03:11:53.023Z,84.20
2019-04-27T03:12:42.329Z,83.80
2019-04-27T03:13:31.876Z,84.00
2019-04-27T03:14:45.995Z,84.30
2019-04-27T03:15:53.099Z,84.30
2019-04-27T03:16:53.322Z,84.50
2019-04-27T03:17:53.064Z,84.30
2019-04-27T03:19:10.051Z,84.50
2019-04-27T03:19:41.416Z,84.60
2019-04-27T03:20:50.251Z,84.70
2019-04-27T03:21:49.546Z,84.60
2019-04-27T03:22:42.687Z,85.00
2019-04-27T03:23:23.340Z,84.70
2019-04-27T03:24:05.078Z,84.60
2019-04-27T03:25:15.121Z,84.60
2019-04-27T03:26:00.646Z,84.90
2019-04-27T03:26:52.861Z,85.00
2019-04-27T03:27:34.391Z,85.00
2019-04-27T03:28:16.460Z,84.90
2019-04-27T03:28:57.169Z,85.10
2019-04-27T03:29:39.013Z,85.10
2019-04-27T03:30:22.731Z,85.00
2019-04-27T03:31:02.968Z,85.10
2019-04-27T03:31:47.563Z,85.00
2019-04-27T03:32:25.737Z,84.50
2019-04-27T03:33:11.819Z,84.70
2019-04-27T03:33:58.648Z,84.70
2019-04-27T03:34:34.291Z,84.40
2019-04-27T03:35:15.111Z,84.50
2019-04-27T03:35:56.069Z,84.50
2019-04-27T03:36:36.621Z,84.80
2019-04-27T03:37:17.235Z,84.90
2019-04-27T03:38:00.347Z,84.60
2019-04-27T03:38:41.620Z,84.70
2019-04-27T03:39:22.228Z,84.60
2019-04-27T03:40:02.786Z,84.60
2019-04-27T03:40:46.873Z,84.60
2019-04-27T03:41:29.302Z,84.40
2019-04-27T03:42:10.831Z,84.30
2019-04-27T03:42:53.815Z,84.40
2019-04-27T03:43:34.399Z,84.50
2019-04-27T03:44:19.066Z,84.20
2019-04-27T03:45:00.597Z,84.70
2019-04-27T03:45:41.931Z,84.30
2019-04-27T03:46:22.469Z,84.20
2019-04-27T03:47:03.180Z,84.60
2019-04-27T03:47:43.777Z,84.70
2019-04-27T03:48:24.440Z,84.50
2019-04-27T03:49:04.990Z,84.60
2019-04-27T03:49:50.283Z,84.10
2019-04-27T03:50:34.739Z,84.30
2019-04-27T03:51:26.549Z,84.10
2019-04-27T03:52:22.983Z,84.10
2019-04-27T03:53:31.423Z,84.30
2019-04-27T03:54:43.982Z,84.10
2019-04-27T03:55:30.535Z,83.50
2019-04-27T03:56:30.435Z,84.00
2019-04-27T03:57:29.722Z,84.00
2019-04-27T03:58:39.322Z,84.10
2019-04-27T03:59:34.307Z,84.10
2019-04-27T04:00:19.902Z,83.90
2019-04-27T04:01:00.766Z,84.00
2019-04-27T04:01:41.479Z,84.10
2019-04-27T04:02:24.784Z,84.00
2019-04-27T04:03:05.490Z,83.90
2019-04-27T04:03:49.714Z,83.80
2019-04-27T04:04:32.655Z,83.80
2019-04-27T04:05:13.795Z,83.80
2019-04-27T04:05:54.647Z,83.70
2019-04-27T04:06:35.422Z,83.50
2019-04-27T04:07:23.958Z,83.70
2019-04-27T04:08:04.678Z,83.60
2019-04-27T04:08:46.595Z,83.20
2019-04-27T04:09:42.005Z,83.10
2019-04-27T04:10:24.049Z,83.20
2019-04-27T04:11:11.941Z,83.70
2019-04-27T04:11:59.171Z,83.30
2019-04-27T04:13:06.092Z,83.40
2019-04-27T04:14:00.145Z,83.60
2019-04-27T04:14:42.603Z,83.70
2019-04-27T04:15:32.053Z,83.30
2019-04-27T04:16:29.713Z,83.10
2019-04-27T04:17:12.799Z,83.40
2019-04-27T04:17:53.582Z,83.30
2019-04-27T04:18:54.103Z,83.20
2019-04-27T04:19:47.927Z,83.10
2019-04-27T04:20:16.678Z,82.70
2019-04-27T04:21:00.414Z,82.60
2019-04-27T04:21:42.374Z,82.90
2019-04-27T04:22:24.645Z,83.10
2019-04-27T04:23:05.448Z,83.30
2019-04-27T04:23:49.475Z,83.10
2019-04-27T04:24:31.811Z,83.30
2019-04-27T04:25:11.731Z,83.10
2019-04-27T04:25:55.209Z,82.80
2019-04-27T04:26:35.751Z,82.60
2019-04-27T04:27:19.991Z,82.60
2019-04-27T04:28:00.671Z,82.70
2019-04-27T04:28:42.467Z,82.60
2019-04-27T04:29:25.967Z,82.40
2019-04-27T04:30:12.410Z,82.50
2019-04-27T04:30:54.953Z,82.60
2019-04-27T04:31:40.475Z,82.70
2019-04-27T04:32:20.362Z,83.10
2019-04-27T04:33:00.989Z,83.20
2019-04-27T04:33:41.592Z,82.20
2019-04-27T04:34:22.325Z,82.00
2019-04-27T04:35:21.408Z,81.90
2019-04-27T04:36:02.250Z,82.40
2019-04-27T04:36:46.263Z,82.10
2019-04-27T04:37:29.405Z,82.10
2019-04-27T04:38:10.603Z,82.50
2019-04-27T04:38:51.290Z,82.90
2019-04-27T04:39:33.579Z,82.80
2019-04-27T04:40:14.192Z,82.90
2019-04-27T04:41:02.039Z,82.70
2019-04-27T04:41:59.446Z,82.70
2019-04-27T04:42:45.878Z,81.70
2019-04-27T04:43:35.115Z,82.20
2019-04-27T04:44:23.990Z,81.80
2019-04-27T04:45:22.338Z,82.10
2019-04-27T04:46:23.418Z,82.10
2019-04-27T04:47:11.078Z,82.10
2019-04-27T04:47:55.621Z,82.10
2019-04-27T04:48:37.394Z,81.70
2019-04-27T04:49:19.457Z,81.50
2019-04-27T04:50:08.512Z,82.10
2019-04-27T04:50:42.463Z,82.20
2019-04-27T04:51:23.239Z,82.30
2019-04-27T04:52:05.697Z,82.30
2019-04-27T04:52:46.255Z,82.90
2019-04-27T04:53:29.130Z,83.20
2019-04-27T04:54:10.713Z,82.30
2019-04-27T04:54:51.318Z,81.80
2019-04-27T04:55:32.029Z,82.50
2019-04-27T04:56:12.536Z,83.00
2019-04-27T04:56:54.512Z,82.90
2019-04-27T04:57:35.130Z,82.70
2019-04-27T04:58:15.777Z,82.10
2019-04-27T04:59:00.011Z,83.10
2019-04-27T04:59:43.538Z,82.90
2019-04-27T05:00:23.565Z,83.00
2019-04-27T05:01:04.197Z,82.80
2019-04-27T05:01:49.720Z,83.10
2019-04-27T05:02:31.266Z,81.90
2019-04-27T05:03:14.743Z,82.60
2019-04-27T05:03:55.366Z,82.70
2019-04-27T05:04:35.971Z,82.50
2019-04-27T05:05:16.594Z,82.80
2019-04-27T05:05:59.976Z,82.10
2019-04-27T05:06:40.698Z,82.30
2019-04-27T05:07:22.676Z,82.00
2019-04-27T05:08:03.278Z,82.50
2019-04-27T05:08:45.334Z,82.10
2019-04-27T05:09:25.979Z,81.90
2019-04-27T05:10:09.027Z,81.70
2019-04-27T05:10:51.631Z,82.00
2019-04-27T05:11:33.555Z,82.00
2019-04-27T05:12:14.213Z,81.70
2019-04-27T05:12:54.819Z,81.90
2019-04-27T05:13:35.446Z,82.00
2019-04-27T05:14:19.800Z,82.40
2019-04-27T05:15:00.753Z,81.30
2019-04-27T05:15:48.723Z,82.10
2019-04-27T05:16:29.494Z,82.10
2019-04-27T05:17:10.150Z,81.70
2019-04-27T05:17:51.909Z,81.70
2019-04-27T05:18:32.543Z,82.10
2019-04-27T05:19:13.112Z,81.70
2019-04-27T05:19:54.467Z,81.60
2019-04-27T05:20:40.986Z,81.80
2019-04-27T05:21:31.498Z,81.20
2019-04-27T05:22:12.102Z,81.40
2019-04-27T05:22:52.703Z,81.20
2019-04-27T05:23:35.042Z,81.00
2019-04-27T05:24:19.027Z,80.70
2019-04-27T05:25:04.056Z,80.70
2019-04-27T05:25:44.674Z,80.60
2019-04-27T05:26:32.014Z,80.80
2019-04-27T05:27:12.587Z,81.60
2019-04-27T05:27:53.200Z,80.10
2019-04-27T05:28:33.870Z,80.60
2019-04-27T05:29:14.449Z,80.20
2019-04-27T05:29:55.134Z,80.00
2019-04-27T05:30:35.711Z,80.00
2019-04-27T05:31:16.390Z,80.10
2019-04-27T05:31:59.042Z,79.80
2019-04-27T05:32:39.356Z,79.80
2019-04-27T05:33:19.962Z,80.20
2019-04-27T05:34:01.687Z,79.70
2019-04-27T05:34:42.322Z,79.60
2019-04-27T05:35:22.910Z,79.40
2019-04-27T05:36:03.451Z,79.70
2019-04-27T05:36:48.753Z,79.60
2019-04-27T05:37:31.646Z,79.90
2019-04-27T05:38:13.376Z,79.60
2019-04-27T05:38:54.739Z,79.60
2019-04-27T05:39:36.445Z,79.60
2019-04-27T05:40:21.407Z,79.40
2019-04-27T05:41:03.767Z,78.90
2019-04-27T05:41:44.349Z,79.20
2019-04-27T05:42:24.999Z,79.90
2019-04-27T05:43:05.585Z,79.60
2019-04-27T05:44:07.750Z,79.70
2019-04-27T05:45:22.866Z,79.30
2019-04-27T05:46:52.252Z,79.00
2019-04-27T05:47:48.473Z,79.20
2019-04-27T05:48:33.877Z,79.10
2019-04-27T05:49:36.406Z,78.30
2019-04-27T05:50:21.958Z,79.10
2019-04-27T05:51:02.936Z,79.20
2019-04-27T05:51:43.627Z,79.40
2019-04-27T05:52:32.258Z,78.90
2019-04-27T05:53:13.001Z,78.40
2019-04-27T05:53:58.714Z,78.30
2019-04-27T05:54:41.766Z,78.40
2019-04-27T05:55:22.658Z,78.50
2019-04-27T05:56:04.479Z,78.50
2019-04-27T05:56:45.010Z,78.70
2019-04-27T05:57:32.438Z,78.40
2019-04-27T05:58:12.997Z,78.50
2019-04-27T05:58:53.645Z,78.20
2019-04-27T05:59:34.296Z,78.70
2019-04-27T06:00:16.542Z,78.30
2019-04-27T06:00:59.267Z,78.20
2019-04-27T06:01:39.366Z,78.30
2019-04-27T06:02:23.651Z,78.30
2019-04-27T06:03:03.158Z,78.20
2019-04-27T06:03:43.794Z,78.20
2019-04-27T06:04:25.690Z,78.20
2019-04-27T06:05:08.781Z,78.90
2019-04-27T06:05:49.540Z,78.60
2019-04-27T06:06:31.317Z,78.50
2019-04-27T06:07:11.866Z,79.00
2019-04-27T06:07:52.642Z,78.40
2019-04-27T06:08:33.261Z,78.40
2019-04-27T06:09:13.888Z,78.20
2019-04-27T06:09:54.540Z,78.10
2019-04-27T06:10:35.145Z,78.10
2019-04-27T06:11:19.523Z,78.10
2019-04-27T06:12:02.521Z,78.10
2019-04-27T06:12:44.796Z,77.60
2019-04-27T06:13:25.368Z,77.40
2019-04-27T06:14:09.416Z,77.40
2019-04-27T06:14:49.619Z,77.50
2019-04-27T06:15:30.338Z,77.40
2019-04-27T06:16:11.013Z,77.10
2019-04-27T06:16:54.541Z,77.30
2019-04-27T06:17:36.302Z,77.10
2019-04-27T06:18:19.039Z,77.30
2019-04-27T06:19:00.854Z,77.40
2019-04-27T06:19:43.790Z,77.80
2019-04-27T06:20:23.776Z,77.30
2019-04-27T06:21:07.336Z,77.30
2019-04-27T06:21:49.827Z,77.40
2019-04-27T06:22:30.058Z,77.10
2019-04-27T06:23:12.403Z,77.80
2019-04-27T06:23:53.098Z,77.60
2019-04-27T06:24:35.986Z,76.90
2019-04-27T06:25:21.216Z,76.90
2019-04-27T06:26:01.794Z,76.80
2019-04-27T06:26:42.536Z,76.50
2019-04-27T06:27:23.142Z,76.50
2019-04-27T06:28:03.757Z,76.70
2019-04-27T06:28:47.169Z,77.00
2019-04-27T06:29:29.562Z,76.70
2019-04-27T06:30:10.438Z,76.30
2019-04-27T06:30:52.803Z,76.40
2019-04-27T06:31:34.520Z,76.40
2019-04-27T06:32:16.307Z,76.40
2019-04-27T06:33:00.215Z,76.20
2019-04-27T06:33:41.943Z,76.10
2019-04-27T06:34:22.538Z,76.30
2019-04-27T06:35:03.141Z,76.80
2019-04-27T06:35:45.531Z,76.30
2019-04-27T06:36:28.744Z,76.90
2019-04-27T06:37:11.160Z,76.50
2019-04-27T06:37:51.757Z,76.60
2019-04-27T06:38:32.280Z,76.60
2019-04-27T06:39:18.916Z,77.40
2019-04-27T06:39:59.622Z,78.00
2019-04-27T06:40:40.556Z,77.80
2019-04-27T06:41:21.174Z,77.50
2019-04-27T06:42:16.002Z,77.50
2019-04-27T06:42:48.502Z,77.30
2019-04-27T06:43:29.409Z,77.10
2019-04-27T06:44:11.395Z,76.90
2019-04-27T06:44:53.925Z,77.10
2019-04-27T06:45:34.473Z,77.00
2019-04-27T06:46:15.136Z,77.20
2019-04-27T06:46:59.026Z,76.80
2019-04-27T06:47:41.279Z,76.70
2019-04-27T06:48:21.298Z,76.90
2019-04-27T06:49:01.915Z,76.40
2019-04-27T06:49:42.587Z,76.70
2019-04-27T06:50:24.273Z,76.90
2019-04-27T06:51:06.749Z,76.60
2019-04-27T06:51:47.369Z,76.60
2019-04-27T06:52:29.130Z,76.90
2019-04-27T06:53:11.217Z,77.00
2019-04-27T06:53:51.868Z,76.90
2019-04-27T06:54:34.241Z,77.20
2019-04-27T06:55:16.566Z,77.80
2019-04-27T06:55:58.982Z,77.40
2019-04-27T06:56:40.807Z,77.20
2019-04-27T06:57:21.370Z,77.60
2019-04-27T06:58:02.075Z,77.60
2019-04-27T06:58:42.970Z,77.40
2019-04-27T06:59:23.770Z,77.20
2019-04-27T07:00:06.378Z,77.20
2019-04-27T07:00:47.019Z,77.60
2019-04-27T07:01:31.089Z,77.60
2019-04-27T07:02:13.505Z,77.10
2019-04-27T07:02:55.452Z,77.00
2019-04-27T07:03:39.403Z,77.00
2019-04-27T07:04:21.288Z,77.20
2019-04-27T07:05:01.945Z,77.70
2019-04-27T07:05:42.562Z,77.80
2019-04-27T07:06:24.462Z,77.80
2019-04-27T07:07:05.212Z,77.80
2019-04-27T07:07:48.998Z,77.80
2019-04-27T07:08:30.943Z,77.80
2019-04-27T07:09:13.716Z,77.60
2019-04-27T07:09:58.906Z,77.60
2019-04-27T07:10:40.262Z,77.30
2019-04-27T07:11:23.729Z,77.90
2019-04-27T07:12:05.850Z,77.20
2019-04-27T07:12:46.365Z,77.10
2019-04-27T07:13:26.905Z,77.30
2019-04-27T07:14:09.537Z,77.20
2019-04-27T07:14:54.876Z,77.60
2019-04-27T07:15:33.239Z,77.20
2019-04-27T07:16:13.915Z,76.90
2019-04-27T07:16:54.475Z,77.00
2019-04-27T07:17:35.172Z,77.00
2019-04-27T07:18:15.790Z,76.90
2019-04-27T07:18:56.369Z,76.60
2019-04-27T07:19:39.713Z,76.60
2019-04-27T07:20:20.034Z,77.00
2019-04-27T07:21:01.325Z,77.80
2019-04-27T07:21:41.500Z,78.40
2019-04-27T07:22:22.890Z,78.20
2019-04-27T07:23:09.400Z,78.00
2019-04-27T07:24:05.037Z,77.50
2019-04-27T07:24:46.035Z,77.00
2019-04-27T07:25:28.895Z,76.90
2019-04-27T07:26:09.426Z,76.80
2019-04-27T07:26:49.704Z,76.70
2019-04-27T07:27:29.936Z,76.60
2019-04-27T07:28:10.149Z,76.30
2019-04-27T07:28:50.588Z,76.30
2019-04-27T07:29:32.550Z,76.60
2019-04-27T07:30:14.462Z,76.60
2019-04-27T07:30:55.802Z,76.60
2019-04-27T07:31:36.083Z,75.90
2019-04-27T07:32:16.885Z,76.10
2019-04-27T07:33:00.343Z,76.00
2019-04-27T07:33:40.666Z,76.20
2019-04-27T07:34:20.821Z,76.20
2019-04-27T07:35:00.942Z,76.50
2019-04-27T07:35:41.125Z,76.50
2019-04-27T07:36:23.010Z,76.40
2019-04-27T07:37:03.224Z,76.30
2019-04-27T07:37:44.477Z,76.00
2019-04-27T07:38:24.719Z,76.00
2019-04-27T07:39:05.616Z,76.00
2019-04-27T07:39:46.891Z,76.20
2019-04-27T07:40:28.874Z,77.10
2019-04-27T07:41:10.458Z,76.50
2019-04-27T07:41:52.515Z,75.80
2019-04-27T07:42:34.355Z,75.80
2019-04-27T07:43:39.666Z,75.90
2019-04-27T07:44:38.956Z,75.90
2019-04-27T07:45:25.135Z,75.80
2019-04-27T07:46:08.919Z,75.80
2019-04-27T07:47:06.889Z,76.00
2019-04-27T07:47:49.717Z,75.50
2019-04-27T07:48:30.016Z,75.50
2019-04-27T07:49:11.317Z,75.40
2019-04-27T07:49:51.550Z,76.40
2019-04-27T07:50:34.126Z,75.10
2019-04-27T07:51:14.345Z,76.20
2019-04-27T07:51:54.702Z,76.60
2019-04-27T07:52:37.785Z,76.40
2019-04-27T07:53:20.374Z,75.90
2019-04-27T07:54:01.775Z,76.20
2019-04-27T07:54:43.616Z,76.00
2019-04-27T07:55:23.810Z,76.10
2019-04-27T07:56:09.329Z,75.90
2019-04-27T07:56:48.910Z,75.90
2019-04-27T07:57:29.174Z,76.10
2019-04-27T07:58:09.426Z,76.10
2019-04-27T07:58:50.773Z,76.10
2019-04-27T07:59:32.562Z,75.90
2019-04-27T08:00:15.206Z,76.20
2019-04-27T08:00:55.494Z,76.70
2019-04-27T08:01:35.801Z,76.50
2019-04-27T08:02:15.970Z,75.40
2019-04-27T08:02:56.174Z,75.20
2019-04-27T08:03:36.601Z,75.40
2019-04-27T08:04:18.827Z,75.60
2019-04-27T08:04:59.622Z,76.10
2019-04-27T08:05:41.561Z,76.00
2019-04-27T08:06:22.993Z,75.90
2019-04-27T08:07:03.320Z,76.50
2019-04-27T08:07:43.442Z,76.30
2019-04-27T08:08:23.766Z,75.70
2019-04-27T08:09:04.327Z,75.60
2019-04-27T08:09:44.543Z,76.00
2019-04-27T08:10:25.924Z,75.70
2019-04-27T08:11:06.096Z,77.00
2019-04-27T08:11:46.321Z,76.80
2019-04-27T08:12:28.756Z,76.10
2019-04-27T08:13:10.074Z,76.30
2019-04-27T08:13:50.304Z,77.10
2019-04-27T08:14:30.517Z,76.30
2019-04-27T08:15:13.126Z,76.00
2019-04-27T08:15:53.446Z,76.70
2019-04-27T08:16:36.021Z,76.30
2019-04-27T08:17:16.154Z,76.60
2019-04-27T08:17:56.397Z,76.40
2019-04-27T08:18:36.491Z,76.60
2019-04-27T08:19:19.630Z,76.50
2019-04-27T08:19:59.990Z,76.80
2019-04-27T08:20:40.234Z,76.80
2019-04-27T08:21:20.447Z,76.40
2019-04-27T08:22:02.371Z,76.40
2019-04-27T08:22:44.879Z,75.60
2019-04-27T08:23:25.151Z,75.80
2019-04-27T08:24:05.470Z,76.20
2019-04-27T08:24:46.754Z,75.60
2019-04-27T08:25:28.728Z,75.80
2019-04-27T08:26:12.223Z,76.20
2019-04-27T08:27:00.651Z,76.00
2019-04-27T08:27:56.361Z,76.00
2019-04-27T08:29:03.545Z,76.00
2019-04-27T08:29:58.330Z,75.60
2019-04-27T08:31:02.120Z,75.70
2019-04-27T08:31:50.670Z,76.20
2019-04-27T08:32:36.285Z,75.80
2019-04-27T08:33:18.975Z,76.40
2019-04-27T08:34:00.085Z,75.60
2019-04-27T08:34:40.395Z,75.70
2019-04-27T08:35:22.252Z,75.70
2019-04-27T08:36:02.513Z,75.30
2019-04-27T08:36:42.656Z,75.30
2019-04-27T08:37:22.789Z,75.50
2019-04-27T08:38:04.745Z,76.00
2019-04-27T08:38:46.610Z,75.70
2019-04-27T08:39:26.853Z,75.60
2019-04-27T08:40:09.300Z,75.70
2019-04-27T08:40:49.569Z,76.00
2019-04-27T08:41:30.921Z,76.00
2019-04-27T08:42:14.403Z,76.10
2019-04-27T08:42:55.823Z,75.90
2019-04-27T08:43:39.059Z,76.00
2019-04-27T08:44:23.000Z,75.90
2019-04-27T08:45:03.157Z,76.00
2019-04-27T08:45:43.553Z,76.90
2019-04-27T08:46:28.714Z,75.70
2019-04-27T08:47:09.559Z,75.80
2019-04-27T08:47:50.057Z,76.30
2019-04-27T08:48:36.894Z,76.30
2019-04-27T08:49:13.065Z,76.40
2019-04-27T08:49:55.037Z,76.40
2019-04-27T08:50:37.723Z,76.20
2019-04-27T08:51:16.856Z,76.10
2019-04-27T08:52:01.211Z,76.00
2019-04-27T08:52:42.230Z,75.90
2019-04-27T08:53:22.447Z,75.90
2019-04-27T08:54:02.571Z,75.90
2019-04-27T08:54:42.890Z,76.10
2019-04-27T08:55:24.873Z,76.50
2019-04-27T08:56:05.143Z,76.60
2019-04-27T08:56:49.422Z,76.50
2019-04-27T08:57:29.755Z,76.60
2019-04-27T08:58:10.229Z,76.70
2019-04-27T08:58:51.633Z,76.60
2019-04-27T08:59:31.788Z,76.50
2019-04-27T09:00:15.534Z,75.90
2019-04-27T09:00:55.800Z,75.20
2019-04-27T09:01:36.011Z,73.90
2019-04-27T09:02:19.631Z,73.50
2019-04-27T09:02:59.745Z,72.90
2019-04-27T09:03:41.652Z,71.90
2019-04-27T09:04:23.554Z,70.80
2019-04-27T09:05:03.693Z,69.90
2019-04-27T09:05:43.793Z,69.20
2019-04-27T09:06:23.937Z,68.70
2019-04-27T09:07:22.818Z,68.40
2019-04-27T09:08:26.489Z,66.90
2019-04-27T09:09:13.799Z,66.00
2019-04-27T09:09:57.154Z,65.80
2019-04-27T09:10:45.589Z,64.70
2019-04-27T09:11:52.589Z,64.60
2019-04-27T09:12:53.637Z,63.70
2019-04-27T09:13:50.565Z,62.80
2019-04-27T09:14:54.056Z,61.90
2019-04-27T09:15:45.141Z,61.60
2019-04-27T09:16:59.563Z,61.00
2019-04-27T09:17:43.138Z,60.80
2019-04-27T09:18:26.165Z,61.10
2019-04-27T09:19:11.141Z,61.20
2019-04-27T09:20:01.812Z,61.20
2019-04-27T09:20:46.388Z,61.20
2019-04-27T09:21:29.349Z,61.10
2019-04-27T09:22:15.882Z,61.00
2019-04-27T09:22:53.764Z,61.00
2019-04-27T09:23:35.617Z,61.10
2019-04-27T09:24:15.722Z,61.00
2019-04-27T09:24:55.877Z,61.00
2019-04-27T09:25:37.169Z,61.20
2019-04-27T09:26:18.596Z,61.30
2019-04-27T09:26:59.598Z,61.50
2019-04-27T09:27:39.925Z,61.70
2019-04-27T09:28:21.783Z,61.90
2019-04-27T09:29:02.970Z,62.10
2019-04-27T09:29:44.445Z,62.20
2019-04-27T09:30:24.550Z,62.40
2019-04-27T09:31:04.725Z,62.70